PAEI METAR and TAF weather

Enter ICAO airport designator
Station Type Date Time Source
PAEI METAR 2020/08/12 17:10 UTC NOAA

PAEI 121710Z COR 00000KT 6SM -RA BR BKN003 OVC060 10/10 A2991 RMK SLP133 $ COR AO2A 1713


Station Type Date Time Source
PAEI Decoded METAR 2020/08/12 17:10 UTC NOAA

Fairbanks, Eielson Air Force Base, AK, United States (PAEI) 64-39N 147-06W 167M
Aug 12, 2020 - 01:10 PM EDT / 2020.08.12 1710 UTC
Wind: Calm:0
Visibility: 6 mile(s):0
Sky conditions: overcast
Weather: light rain; mist
Temperature: 50 F (10 C)
Dew Point: 50 F (10 C)
Relative Humidity: 100%
Pressure (altimeter): 29.91 in. Hg (1012 hPa)
ob: PAEI 121710Z COR 00000KT 6SM -RA BR BKN003 OVC060 10/10 A2991 RMK SLP133 COR AO2A 1713
cycle: 17

Station Type Date Time Source
PAEI TAF 2020/08/12 17:30 UTC NOAA

TAF TAF
AMD PAEI 121720Z 1217/1320 VRB06KT 9000 -RA BR BKN003 OVC060 620609 QNH2990INS
TEMPO 1217/1219 9999 VCSH SCT003 OVC060
BECMG 1218/1219 23009KT 9999 NSW BKN040 OVC060 620659 QNH2989INS
BECMG 1223/1224 33009KT 9999 VCSH FEW035 BKN050 610659 QNH2988INS
BECMG 1301/1302 27006KT 8000 -SHRA VCTS SCT035 BKN045CB QNH2988INS
TEMPO 1302/1306 VRB12G18KT 6000 -TSRA FEW025 BKN040CB
BECMG 1305/1306 VRB06KT 9999 NSW SCT060 QNH2990INS
BECMG 1315/1316 22006KT 9999 OVC075 620755 QNH2997INS TX17/1300Z TN08/1314Z

Example: see airport list